createdAt,value
2023-03-12T00:01:19.483Z,52.80
2023-03-12T00:03:50.103Z,34.90
2023-03-12T00:06:21.189Z,42.13
2023-03-12T00:08:50.034Z,43.00
2023-03-12T00:11:21.074Z,38.38
2023-03-12T00:13:51.304Z,47.70
2023-03-12T00:16:19.812Z,63.45
2023-03-12T00:18:51.651Z,52.80
2023-03-12T00:21:20.528Z,69.15
2023-03-12T00:23:49.319Z,42.05
2023-03-12T00:26:18.605Z,75.25
2023-03-12T00:28:48.423Z,60.17
2023-03-12T00:31:18.527Z,64.95
2023-03-12T00:33:49.433Z,38.67
2023-03-12T00:36:19.974Z,35.90
2023-03-12T00:38:48.345Z,46.22
2023-03-12T00:41:16.669Z,44.47
2023-03-12T00:43:44.934Z,45.22
2023-03-12T00:46:13.502Z,38.30
2023-03-12T00:48:42.448Z,35.58
2023-03-12T00:51:11.099Z,33.00
2023-03-12T00:53:40.908Z,33.67
2023-03-12T00:56:10.389Z,36.97
2023-03-12T00:58:38.604Z,24.63
2023-03-12T01:01:07.684Z,29.77
2023-03-12T01:03:36.976Z,37.85
2023-03-12T01:06:05.988Z,37.65
2023-03-12T01:08:34.863Z,33.42
2023-03-12T01:11:05.235Z,33.05
2023-03-12T01:13:33.569Z,36.60
2023-03-12T01:16:01.944Z,29.90
2023-03-12T01:18:30.812Z,34.35
2023-03-12T01:20:59.532Z,31.85
2023-03-12T01:23:28.074Z,39.95
2023-03-12T01:25:56.583Z,41.92
2023-03-12T01:28:27.278Z,28.83
2023-03-12T01:30:55.618Z,29.20
2023-03-12T01:33:24.183Z,32.75
2023-03-12T01:35:52.722Z,24.48
2023-03-12T01:38:21.317Z,32.08
2023-03-12T01:40:49.580Z,24.38
2023-03-12T01:43:28.602Z,37.67
2023-03-12T01:46:22.984Z,28.35
2023-03-12T01:48:56.513Z,29.02
2023-03-12T01:51:28.219Z,29.70
2023-03-12T01:54:01.778Z,24.42
2023-03-12T01:56:35.885Z,21.23
2023-03-12T02:01:36.849Z,32.47
2023-03-12T02:04:05.561Z,25.42
2023-03-12T02:06:40.443Z,25.15
2023-03-12T02:09:09.286Z,36.13
2023-03-12T02:11:37.921Z,22.65
2023-03-12T02:14:07.890Z,31.13
2023-03-12T02:16:36.312Z,30.70
2023-03-12T02:19:12.410Z,25.17
2023-03-12T02:21:41.146Z,36.15
2023-03-12T02:24:19.640Z,26.48
2023-03-12T02:26:49.987Z,46.83
2023-03-12T02:29:19.367Z,32.85
2023-03-12T02:31:53.318Z,25.67
2023-03-12T02:34:21.754Z,35.60
2023-03-12T02:36:50.521Z,36.97
2023-03-12T02:39:19.729Z,19.92
2023-03-12T02:41:53.685Z,30.63
2023-03-12T02:44:25.252Z,39.45
2023-03-12T02:46:56.866Z,23.33
2023-03-12T02:49:27.526Z,27.97
2023-03-12T02:51:56.334Z,29.98
2023-03-12T02:54:25.272Z,28.58
2023-03-12T02:56:55.171Z,30.60
2023-03-12T02:59:26.943Z,31.60
2023-03-12T03:01:59.806Z,25.90
2023-03-12T03:04:29.368Z,37.13
2023-03-12T03:06:58.718Z,37.40
2023-03-12T03:09:27.601Z,37.70
2023-03-12T03:11:58.725Z,19.75
2023-03-12T03:14:28.878Z,28.88
2023-03-12T03:16:57.312Z,37.53
2023-03-12T03:19:25.767Z,45.05
2023-03-12T03:21:54.075Z,16.23
2023-03-12T03:24:22.554Z,34.13
2023-03-12T03:26:50.910Z,34.38
2023-03-12T03:29:20.680Z,36.22
2023-03-12T03:31:49.221Z,30.77
2023-03-12T03:34:18.582Z,23.08
2023-03-12T03:36:47.100Z,28.67
2023-03-12T03:39:17.593Z,39.83
2023-03-12T03:41:47.386Z,30.73
2023-03-12T03:44:20.208Z,40.70
2023-03-12T03:46:49.934Z,27.42
2023-03-12T03:49:18.605Z,32.38
2023-03-12T03:51:47.142Z,19.83
2023-03-12T03:54:19.206Z,42.03
2023-03-12T03:56:48.334Z,41.40
2023-03-12T03:59:16.725Z,20.17
2023-03-12T04:01:47.435Z,45.00
2023-03-12T04:04:16.170Z,34.30
2023-03-12T04:06:44.706Z,27.50
2023-03-12T04:09:13.095Z,26.33
2023-03-12T04:11:42.082Z,43.65
2023-03-12T04:14:12.538Z,29.40
2023-03-12T04:16:43.691Z,32.60
2023-03-12T04:19:13.785Z,23.58
2023-03-12T04:21:42.387Z,29.88
2023-03-12T04:24:15.578Z,32.15
2023-03-12T04:26:44.889Z,19.35
2023-03-12T04:29:13.830Z,33.03
2023-03-12T04:31:43.686Z,36.00
2023-03-12T04:34:14.616Z,27.30
2023-03-12T04:36:48.076Z,27.67
2023-03-12T04:39:19.591Z,38.70
2023-03-12T04:41:50.512Z,34.17
2023-03-12T04:44:19.394Z,28.50
2023-03-12T04:46:47.887Z,46.75
2023-03-12T04:51:49.991Z,14.25
2023-03-12T04:54:21.111Z,26.10
2023-03-12T04:56:50.229Z,35.35
2023-03-12T04:59:19.491Z,27.45
2023-03-12T05:01:48.156Z,25.92
2023-03-12T05:04:23.016Z,24.27
2023-03-12T05:06:52.321Z,27.25
2023-03-12T05:09:20.739Z,32.30
2023-03-12T05:11:49.552Z,34.17
2023-03-12T05:14:21.158Z,28.77
2023-03-12T05:16:50.593Z,31.33
2023-03-12T05:19:19.313Z,35.95
2023-03-12T05:21:49.214Z,38.20
2023-03-12T05:24:19.095Z,27.48
2023-03-12T05:26:48.710Z,26.73
2023-03-12T05:29:19.644Z,43.60
2023-03-12T05:31:47.969Z,37.58
2023-03-12T05:34:16.424Z,29.85
2023-03-12T05:36:46.554Z,36.28
2023-03-12T05:39:20.343Z,28.88
2023-03-12T05:41:49.538Z,31.90
2023-03-12T05:44:20.275Z,23.80
2023-03-12T05:46:53.626Z,26.38
2023-03-12T05:51:55.527Z,35.63
2023-03-12T05:54:26.735Z,19.35
2023-03-12T05:56:56.898Z,23.85
2023-03-12T05:59:26.991Z,35.50
2023-03-12T06:01:58.479Z,42.90
2023-03-12T06:04:27.214Z,18.85
2023-03-12T06:06:55.575Z,33.50
2023-03-12T06:09:24.599Z,29.13
2023-03-12T06:11:55.463Z,31.63
2023-03-12T06:14:23.801Z,26.85
2023-03-12T06:16:52.329Z,25.77
2023-03-12T06:19:20.918Z,16.58
2023-03-12T06:21:51.228Z,37.28
2023-03-12T06:24:20.024Z,41.92
2023-03-12T06:26:57.756Z,20.52
2023-03-12T06:29:26.139Z,26.02
2023-03-12T06:31:56.088Z,20.30
2023-03-12T06:34:24.445Z,34.63
2023-03-12T06:36:52.740Z,39.13
2023-03-12T06:39:21.262Z,22.80
2023-03-12T06:41:49.762Z,34.60
2023-03-12T06:44:19.691Z,26.45
2023-03-12T06:46:48.174Z,25.52
2023-03-12T06:49:16.808Z,37.25
2023-03-12T06:51:45.148Z,20.50
2023-03-12T06:54:13.506Z,20.20
2023-03-12T06:56:42.226Z,31.95
2023-03-12T06:59:10.666Z,32.08
2023-03-12T07:01:40.455Z,28.02
2023-03-12T07:04:08.675Z,19.83
2023-03-12T07:06:37.025Z,31.00
2023-03-12T07:09:06.149Z,26.95
2023-03-12T07:11:34.697Z,23.77
2023-03-12T07:14:03.535Z,17.10
2023-03-12T07:16:31.893Z,18.45
2023-03-12T07:19:01.635Z,22.40
2023-03-12T07:21:31.860Z,24.35
2023-03-12T07:24:01.105Z,26.63
2023-03-12T07:26:29.504Z,32.50
2023-03-12T07:28:58.341Z,25.38
2023-03-12T07:31:26.620Z,19.27
2023-03-12T07:33:55.143Z,26.52
2023-03-12T07:36:24.965Z,21.73
2023-03-12T07:38:53.437Z,34.13
2023-03-12T07:41:21.823Z,18.13
2023-03-12T07:43:50.610Z,20.58
2023-03-12T07:46:18.943Z,21.80
2023-03-12T07:48:48.711Z,19.88
2023-03-12T07:51:16.984Z,28.75
2023-03-12T07:53:46.638Z,28.20
2023-03-12T07:56:15.060Z,33.47
2023-03-12T07:58:43.723Z,31.77
2023-03-12T08:01:12.293Z,28.13
2023-03-12T08:03:40.852Z,14.55
2023-03-12T08:06:09.349Z,27.30
2023-03-12T08:08:41.704Z,17.48
2023-03-12T08:11:11.595Z,20.35
2023-03-12T08:13:39.916Z,34.85
2023-03-12T08:16:09.531Z,29.85
2023-03-12T08:18:38.281Z,23.08
2023-03-12T08:21:06.882Z,23.42
2023-03-12T08:23:36.844Z,29.45
2023-03-12T08:26:05.252Z,29.88
2023-03-12T08:28:34.957Z,26.75
2023-03-12T08:31:03.644Z,37.58
2023-03-12T08:33:33.536Z,25.48
2023-03-12T08:36:02.265Z,24.17
2023-03-12T08:38:30.703Z,18.10
2023-03-12T08:40:59.806Z,26.45
2023-03-12T08:43:29.640Z,24.02
2023-03-12T08:46:01.285Z,22.98
2023-03-12T08:48:31.543Z,19.90
2023-03-12T08:51:01.121Z,24.38
2023-03-12T08:53:31.379Z,22.23
2023-03-12T08:56:00.486Z,29.60
2023-03-12T08:58:30.415Z,22.33
2023-03-12T09:01:00.325Z,25.85
2023-03-12T09:03:28.712Z,25.38
2023-03-12T09:06:09.896Z,17.13
2023-03-12T09:08:38.333Z,13.77
2023-03-12T09:11:06.901Z,32.70
2023-03-12T09:13:55.525Z,24.48
2023-03-12T09:16:24.956Z,22.42
2023-03-12T09:18:53.388Z,19.60
2023-03-12T09:21:22.106Z,31.30
2023-03-12T09:23:51.230Z,25.85
2023-03-12T09:26:19.505Z,17.60
2023-03-12T09:28:48.077Z,32.30
2023-03-12T09:31:16.346Z,39.17
2023-03-12T09:33:46.716Z,23.27
2023-03-12T09:36:15.018Z,31.65
2023-03-12T09:38:43.514Z,35.30
2023-03-12T09:41:21.368Z,24.10
2023-03-12T09:43:55.588Z,32.33
2023-03-12T09:46:27.955Z,29.38
2023-03-12T09:51:34.327Z,24.75
2023-03-12T09:54:07.444Z,15.73
2023-03-12T09:56:36.140Z,38.30
2023-03-12T09:59:04.995Z,25.38
2023-03-12T10:01:45.161Z,24.55
2023-03-12T10:04:58.565Z,24.90
2023-03-12T10:07:35.090Z,32.50
2023-03-12T10:10:15.464Z,23.95
2023-03-12T10:12:55.274Z,21.92
2023-03-12T10:15:35.295Z,39.53
2023-03-12T10:18:19.944Z,20.92
2023-03-12T10:21:00.195Z,12.57
2023-03-12T10:23:41.055Z,28.10
2023-03-12T10:26:14.958Z,19.70
2023-03-12T10:28:46.971Z,23.73
2023-03-12T10:31:21.088Z,15.35
2023-03-12T10:33:54.362Z,26.75
2023-03-12T10:36:28.452Z,21.52
2023-03-12T10:38:56.589Z,20.13
2023-03-12T10:41:27.754Z,32.58
2023-03-12T10:43:58.598Z,22.48
2023-03-12T10:46:59.888Z,16.48
2023-03-12T10:49:34.695Z,15.55
2023-03-12T10:52:08.191Z,24.67
2023-03-12T10:54:38.691Z,21.85
2023-03-12T10:57:07.442Z,17.25
2023-03-12T10:59:39.038Z,18.30
2023-03-12T11:02:32.891Z,22.73
2023-03-12T11:05:03.503Z,15.80
2023-03-12T11:07:35.650Z,15.13
2023-03-12T11:10:25.838Z,24.20
2023-03-12T11:13:03.343Z,18.25
2023-03-12T11:15:40.703Z,16.20
2023-03-12T11:18:22.021Z,19.33
2023-03-12T11:20:53.058Z,10.43
2023-03-12T11:23:27.347Z,17.48
2023-03-12T11:25:58.393Z,12.13
2023-03-12T11:28:33.739Z,17.08
2023-03-12T11:31:03.297Z,12.60
2023-03-12T11:33:31.751Z,22.63
2023-03-12T11:36:09.910Z,11.35
2023-03-12T11:38:44.676Z,9.15
2023-03-12T11:41:33.927Z,15.50
2023-03-12T11:44:19.877Z,12.30
2023-03-12T11:47:01.068Z,20.10
2023-03-12T11:49:43.246Z,10.77
2023-03-12T11:52:20.889Z,6.78
2023-03-12T11:55:16.960Z,7.43
2023-03-12T11:57:58.332Z,5.28
2023-03-12T12:00:33.893Z,12.43
2023-03-12T12:03:25.397Z,13.45
2023-03-12T12:06:03.325Z,6.50
2023-03-12T12:08:59.631Z,9.05
2023-03-12T12:11:42.003Z,12.43
2023-03-12T12:14:21.561Z,6.70
2023-03-12T12:17:08.478Z,5.38
2023-03-12T12:19:52.234Z,3.20
2023-03-12T12:22:37.507Z,1.83
2023-03-12T12:25:30.051Z,4.68
2023-03-12T12:28:21.986Z,3.63
2023-03-12T12:31:16.397Z,3.60
2023-03-12T12:33:56.870Z,2.70
2023-03-12T12:36:28.702Z,5.32
2023-03-12T12:39:05.843Z,3.90
2023-03-12T12:41:37.186Z,6.45
2023-03-12T12:44:14.043Z,1.33
2023-03-12T12:46:46.492Z,1.27
2023-03-12T12:51:50.038Z,0.60
2023-03-12T12:54:27.524Z,1.20
2023-03-12T12:57:03.635Z,1.30
2023-03-12T12:59:40.043Z,2.50
2023-03-12T13:02:18.048Z,1.33
2023-03-12T13:04:49.501Z,0.93
2023-03-12T13:07:35.189Z,3.28
2023-03-12T13:10:09.057Z,3.70
2023-03-12T13:12:44.619Z,5.22
2023-03-12T13:15:40.847Z,2.35
2023-03-12T13:18:19.610Z,6.22
2023-03-12T13:21:10.904Z,2.10
2023-03-12T13:23:47.136Z,2.08
2023-03-12T13:26:31.783Z,2.10
2023-03-12T13:29:29.128Z,3.95
2023-03-12T13:32:12.818Z,1.23
2023-03-12T13:35:00.884Z,4.93
2023-03-12T13:38:18.851Z,3.28
2023-03-12T13:41:08.092Z,1.73
2023-03-12T13:44:07.773Z,4.70
2023-03-12T13:46:57.817Z,2.03
2023-03-12T13:49:54.761Z,1.75
2023-03-12T13:52:43.707Z,0.47
2023-03-12T13:55:36.833Z,2.63
2023-03-12T13:58:30.106Z,0.60
2023-03-12T14:01:14.844Z,3.47
2023-03-12T14:04:07.015Z,1.40
2023-03-12T14:07:05.733Z,1.55
2023-03-12T14:10:06.119Z,6.20
2023-03-12T14:12:55.967Z,0.57
2023-03-12T14:15:52.770Z,4.10
2023-03-12T14:18:45.778Z,2.35
2023-03-12T14:21:41.046Z,4.30
2023-03-12T14:24:32.711Z,4.85
2023-03-12T14:27:26.024Z,7.07
2023-03-12T14:30:17.709Z,2.20
2023-03-12T14:33:10.032Z,0.97
2023-03-12T14:35:56.739Z,1.50
2023-03-12T14:38:49.119Z,1.67
2023-03-12T14:41:37.747Z,2.58
2023-03-12T14:44:31.035Z,17.70
2023-03-12T14:47:16.697Z,36.33
2023-03-12T14:50:06.019Z,15.30
2023-03-12T14:52:47.673Z,7.38
2023-03-12T14:55:35.969Z,2.03
2023-03-12T14:58:26.724Z,1.25
2023-03-12T15:01:21.050Z,2.80
2023-03-12T15:04:05.644Z,6.57
2023-03-12T15:06:46.899Z,2.05
2023-03-12T15:09:19.489Z,10.23
2023-03-12T15:11:55.516Z,5.78
2023-03-12T15:14:28.313Z,3.80
2023-03-12T15:17:00.292Z,8.23
2023-03-12T15:19:34.683Z,22.02
2023-03-12T15:22:04.518Z,34.20
2023-03-12T15:24:40.806Z,27.73
2023-03-12T15:27:31.021Z,22.38
2023-03-12T15:30:22.702Z,72.70
2023-03-12T15:33:11.622Z,84.85
2023-03-12T15:35:42.990Z,146.90
2023-03-12T15:38:19.528Z,132.40
2023-03-12T15:40:54.020Z,186.10
2023-03-12T15:43:25.210Z,220.95
2023-03-12T15:46:02.229Z,253.05
2023-03-12T15:48:33.727Z,175.85
2023-03-12T15:51:02.584Z,176.20
2023-03-12T15:53:32.744Z,202.05
2023-03-12T15:56:06.096Z,121.85
2023-03-12T15:58:36.012Z,127.07
2023-03-12T16:01:11.027Z,45.65
2023-03-12T16:03:39.956Z,7.07
2023-03-12T16:06:14.232Z,37.78
2023-03-12T16:08:46.026Z,25.48
2023-03-12T16:11:18.553Z,35.20
2023-03-12T16:13:48.666Z,26.17
2023-03-12T16:16:19.148Z,34.40
2023-03-12T16:18:47.441Z,31.60
2023-03-12T16:21:15.821Z,46.05
2023-03-12T16:23:44.080Z,33.72
2023-03-12T16:26:14.504Z,36.40
2023-03-12T16:28:45.728Z,35.83
2023-03-12T16:31:14.532Z,23.35
2023-03-12T16:33:44.906Z,28.02
2023-03-12T16:36:17.847Z,50.75
2023-03-12T16:38:46.472Z,43.67
2023-03-12T16:41:23.728Z,27.08
2023-03-12T16:43:54.943Z,30.05
2023-03-12T16:46:31.801Z,28.67
2023-03-12T16:50:55.760Z,21.55
2023-03-12T16:52:43.234Z,42.72
2023-03-12T17:18:12.494Z,32.85
2023-03-12T17:22:04.597Z,36.58
2023-03-12T17:25:35.236Z,43.30
2023-03-12T17:40:45.037Z,29.70
2023-03-12T17:45:04.565Z,28.83
2023-03-12T17:59:38.191Z,40.85
2023-03-12T18:10:22.894Z,43.58
2023-03-12T19:33:29.675Z,30.48
2023-03-12T19:36:05.844Z,36.05
2023-03-12T19:38:34.334Z,34.70
2023-03-12T19:41:46.706Z,23.02
2023-03-12T19:55:25.322Z,29.52
2023-03-12T19:59:17.321Z,46.95
2023-03-12T20:02:44.955Z,37.28
2023-03-12T20:06:42.382Z,33.55
2023-03-12T20:09:55.924Z,40.03
2023-03-12T20:12:35.067Z,31.73
2023-03-12T20:15:05.711Z,33.33
2023-03-12T20:17:44.479Z,37.78
2023-03-12T20:20:16.759Z,37.28
2023-03-12T20:22:45.284Z,36.10
2023-03-12T20:25:51.101Z,27.48
2023-03-12T20:28:32.798Z,29.92
2023-03-12T20:31:11.922Z,41.28
2023-03-12T20:33:54.577Z,35.17
2023-03-12T20:36:24.361Z,40.78
2023-03-12T20:38:55.025Z,37.47
2023-03-12T20:41:30.674Z,31.92
2023-03-12T20:44:19.540Z,23.63
2023-03-12T20:51:47.511Z,36.78
2023-03-12T20:54:53.528Z,29.88
2023-03-12T20:57:40.048Z,45.30
2023-03-12T21:07:15.905Z,28.58
2023-03-12T21:13:22.046Z,29.55
2023-03-12T21:16:48.671Z,30.25
2023-03-12T21:27:35.652Z,29.70
2023-03-12T21:34:39.982Z,38.53
2023-03-12T21:38:31.848Z,39.13
2023-03-12T21:48:26.210Z,24.67
2023-03-12T21:55:23.300Z,27.50
2023-03-12T23:06:11.872Z,35.67
2023-03-12T23:43:19.931Z,26.10
2023-03-12T23:46:36.361Z,32.33
2023-03-12T23:50:01.825Z,38.40
